Time;durP1;ratioP1;P1;durP2;ratioP2;P2;SDS_P1;SDS_P2;PMS_P1;PMS_P2;Temp;Humidity;BMP_temperature;BMP_pressure;BME280_temperature;BME280_humidity;BME280_pressure;Samples;Min_cycle;Max_cycle;Signal;HPM_P1;HPM_P2
2024/01/01 00:00:06;;;;;;;34.50;19.20;;;7.70;99.90;;;;;;5074909;28;20369;-56
2024/01/01 00:02:32;;;;;;;42.33;23.55;;;7.70;99.90;;;;;;5056908;28;20131;-56
2024/01/01 00:04:58;;;;;;;46.53;25.37;;;7.60;99.90;;;;;;5074384;28;20143;-56
2024/01/01 00:07:24;;;;;;;52.58;29.88;;;7.70;99.90;;;;;;5074439;28;20106;-55
2024/01/01 00:09:49;;;;;;;59.17;34.57;;;7.70;99.90;;;;;;5074333;28;20488;-54
2024/01/01 00:12:15;;;;;;;62.97;35.23;;;7.70;99.90;;;;;;5074001;28;20079;-54
2024/01/01 00:14:41;;;;;;;62.90;33.07;;;7.70;99.90;;;;;;5074545;28;20048;-54
2024/01/01 00:17:06;;;;;;;54.90;30.80;;;7.70;99.90;;;;;;5074171;28;20044;-55
2024/01/01 00:19:34;;;;;;;50.70;28.13;;;7.70;99.90;;;;;;5074061;28;20049;-53
2024/01/01 00:22:00;;;;;;;47.17;27.20;;;7.70;99.90;;;;;;5074096;28;20051;-54
2024/01/01 00:24:25;;;;;;;45.47;25.40;;;7.70;99.90;;;;;;5072857;28;20040;-55
2024/01/01 00:26:51;;;;;;;42.60;24.20;;;7.70;99.90;;;;;;5072716;28;20079;-54
2024/01/01 00:29:16;;;;;;;40.53;23.37;;;7.70;99.90;;;;;;5074079;28;20044;-54
2024/01/01 00:31:43;;;;;;;40.30;21.77;;;7.70;99.90;;;;;;5073915;28;20491;-53
2024/01/01 00:34:09;;;;;;;37.30;19.83;;;7.70;99.90;;;;;;5073451;28;20161;-54
2024/01/01 00:36:34;;;;;;;33.13;19.33;;;7.70;99.90;;;;;;5073873;28;20088;-55
2024/01/01 00:39:00;;;;;;;43.00;19.27;;;7.70;99.90;;;;;;5073845;28;20049;-55
2024/01/01 00:41:26;;;;;;;35.47;19.97;;;7.70;99.90;;;;;;5072615;28;20047;-54
2024/01/01 00:43:51;;;;;;;33.27;19.30;;;7.70;99.90;;;;;;5073552;28;20049;-54
2024/01/01 00:46:17;;;;;;;37.87;20.63;;;7.60;99.90;;;;;;5073852;28;20037;-52
2024/01/01 00:48:43;;;;;;;37.63;20.57;;;7.60;99.90;;;;;;5073797;28;20097;-54
2024/01/01 00:51:09;;;;;;;32.37;17.97;;;7.60;99.90;;;;;;5073881;28;20044;-54
2024/01/01 00:53:34;;;;;;;39.37;20.67;;;7.70;99.90;;;;;;5073585;28;20119;-54
2024/01/01 00:56:00;;;;;;;37.77;19.93;;;7.70;99.90;;;;;;5073733;28;20044;-53
2024/01/01 00:58:26;;;;;;;40.47;22.37;;;7.70;99.90;;;;;;5073587;28;20450;-54
2024/01/01 01:00:51;;;;;;;35.57;20.67;;;7.60;99.90;;;;;;5072710;28;20059;-54
2024/01/01 01:03:17;;;;;;;44.67;23.03;;;7.60;99.90;;;;;;5073512;28;20048;-54
2024/01/01 01:05:43;;;;;;;35.37;20.20;;;7.70;99.90;;;;;;5073601;28;20472;-53
2024/01/01 01:08:08;;;;;;;36.60;20.37;;;7.70;99.90;;;;;;5073712;28;20048;-55
2024/01/01 01:10:34;;;;;;;34.10;19.03;;;7.60;99.90;;;;;;5073434;28;20045;-54
2024/01/01 01:13:00;;;;;;;29.77;16.50;;;7.60;99.90;;;;;;5073231;28;20095;-53
2024/01/01 01:15:26;;;;;;;35.30;16.73;;;7.70;99.90;;;;;;5073475;28;20080;-53
2024/01/01 01:17:52;;;;;;;24.48;14.45;;;7.70;99.90;;;;;;5073416;28;20606;-54
2024/01/01 01:20:19;;;;;;;32.03;16.47;;;7.70;99.90;;;;;;5073463;28;20084;-53
2024/01/01 01:22:44;;;;;;;30.20;16.08;;;7.70;99.90;;;;;;5072317;28;20048;-54
2024/01/01 01:25:12;;;;;;;31.10;17.73;;;7.60;99.90;;;;;;5071965;28;20041;-55
2024/01/01 01:27:40;;;;;;;28.52;15.60;;;7.60;99.90;;;;;;5073122;28;20052;-55
2024/01/01 01:30:06;;;;;;;28.08;16.00;;;7.60;99.90;;;;;;5073387;28;20045;-55
2024/01/01 01:32:32;;;;;;;31.58;16.98;;;7.60;99.90;;;;;;5073342;28;20507;-55
2024/01/01 01:34:57;;;;;;;29.17;15.77;;;7.70;99.90;;;;;;5072308;28;20045;-55
2024/01/01 01:37:23;;;;;;;29.03;15.50;;;7.60;99.90;;;;;;5072105;28;20075;-55
2024/01/01 01:39:48;;;;;;;28.87;15.03;;;7.60;99.90;;;;;;5073234;28;20041;-55
2024/01/01 01:42:14;;;;;;;28.17;15.83;;;7.60;99.90;;;;;;5072701;28;20070;-56
2024/01/01 01:44:40;;;;;;;24.73;14.13;;;7.60;99.90;;;;;;5072976;28;20041;-55
2024/01/01 01:47:07;;;;;;;24.30;13.50;;;7.60;99.90;;;;;;5073215;28;20055;-55
2024/01/01 01:49:33;;;;;;;;;;;7.70;99.90;;;;;;5073526;28;20128;-55
2024/01/01 01:52:05;;;;;;;28.95;13.52;;;7.60;99.90;;;;;;5073245;28;19999;-54
2024/01/01 01:54:33;;;;;;;24.83;13.35;;;7.60;99.90;;;;;;5073081;28;20119;-55
2024/01/01 01:57:00;;;;;;;24.05;12.75;;;7.60;99.90;;;;;;5073116;28;20395;-54
2024/01/01 01:59:26;;;;;;;25.38;13.10;;;7.70;99.90;;;;;;5073071;28;20045;-55
2024/01/01 02:01:52;;;;;;;26.63;13.40;;;7.70;99.90;;;;;;5073080;28;20105;-55
2024/01/01 02:04:18;;;;;;;26.10;13.20;;;7.70;99.90;;;;;;5073147;28;20068;-55
2024/01/01 02:06:45;;;;;;;24.87;13.07;;;7.70;99.90;;;;;;5073047;28;20395;-55
2024/01/01 02:09:11;;;;;;;25.80;12.65;;;7.70;99.90;;;;;;5072708;28;20056;-55
2024/01/01 02:11:36;;;;;;;23.33;11.27;;;7.70;99.90;;;;;;5074761;28;20190;-55
2024/01/01 02:14:08;;;;;;;22.73;11.77;;;7.70;99.90;;;;;;5075638;28;20052;-56
2024/01/01 02:16:34;;;;;;;21.67;11.20;;;7.80;99.90;;;;;;5076755;28;20052;-55
2024/01/01 02:19:00;;;;;;;21.80;11.00;;;7.80;99.90;;;;;;5076564;28;20048;-56
2024/01/01 02:21:27;;;;;;;20.37;10.43;;;7.80;99.90;;;;;;5076459;28;20060;-55
2024/01/01 02:23:54;;;;;;;19.88;10.30;;;7.80;99.90;;;;;;5076299;28;20124;-56
2024/01/01 02:26:20;;;;;;;21.48;10.88;;;7.80;99.90;;;;;;5076400;28;20080;-56
2024/01/01 02:28:46;;;;;;;20.63;10.20;;;7.80;99.90;;;;;;5076514;28;20052;-55
2024/01/01 02:31:11;;;;;;;18.10;10.87;;;7.80;99.90;;;;;;5075273;28;20052;-54
2024/01/01 02:33:37;;;;;;;20.70;10.73;;;7.80;99.90;;;;;;5076254;28;20075;-53
2024/01/01 02:36:03;;;;;;;18.37;10.07;;;7.80;99.90;;;;;;5075392;28;20040;-54
2024/01/01 02:38:28;;;;;;;21.40;11.32;;;7.80;99.90;;;;;;5075865;28;20060;-55
2024/01/01 02:40:54;;;;;;;20.73;10.47;;;7.80;99.90;;;;;;5075865;28;20036;-54
2024/01/01 02:43:20;;;;;;;18.30;10.33;;;7.90;99.90;;;;;;5076028;28;20044;-54
2024/01/01 02:45:45;;;;;;;22.93;11.30;;;7.90;99.90;;;;;;5074800;28;20076;-54
2024/01/01 02:48:11;;;;;;;22.73;11.00;;;7.90;99.90;;;;;;5075921;28;20053;-55
2024/01/01 02:50:37;;;;;;;17.07;10.90;;;7.90;99.90;;;;;;5075925;28;20044;-55
2024/01/01 02:53:03;;;;;;;22.30;11.27;;;7.90;99.90;;;;;;5075719;28;20052;-54
2024/01/01 02:55:28;;;;;;;23.90;12.20;;;7.90;99.90;;;;;;5076074;28;20394;-54
2024/01/01 02:57:54;;;;;;;22.67;11.80;;;7.90;99.90;;;;;;5075939;28;20045;-51
2024/01/01 03:00:20;;;;;;;26.70;14.90;;;7.80;99.90;;;;;;5075663;28;20154;-54
2024/01/01 03:02:45;;;;;;;25.43;13.47;;;7.80;99.90;;;;;;5075797;28;20060;-55
2024/01/01 03:05:11;;;;;;;20.30;10.30;;;7.80;99.90;;;;;;5075679;28;20064;-53
2024/01/01 03:07:37;;;;;;;18.53;10.47;;;7.70;99.90;;;;;;5075435;28;20098;-53
2024/01/01 03:10:04;;;;;;;18.03;8.97;;;7.70;99.90;;;;;;5075619;28;20045;-54
2024/01/01 03:12:31;;;;;;;16.45;7.75;;;7.60;99.90;;;;;;5074530;28;20127;-51
2024/01/01 03:14:57;;;;;;;;;;;7.60;99.90;;;;;;5075864;28;20055;-54
2024/01/01 03:17:23;;;;;;;19.67;9.18;;;7.50;99.90;;;;;;5075708;28;19920;-54
2024/01/01 03:19:48;;;;;;;14.20;7.53;;;7.50;99.90;;;;;;5075390;28;20396;-53
2024/01/01 03:22:14;;;;;;;17.33;7.93;;;7.50;99.90;;;;;;5075238;28;20060;-53
2024/01/01 03:24:39;;;;;;;15.53;7.40;;;7.50;99.90;;;;;;5075177;28;20043;-55
2024/01/01 03:27:05;;;;;;;14.23;7.33;;;7.40;99.90;;;;;;5075282;28;20049;-53
2024/01/01 03:29:31;;;;;;;16.57;7.17;;;7.40;99.90;;;;;;5075169;28;20052;-53
2024/01/01 03:31:57;;;;;;;13.60;5.83;;;7.40;99.90;;;;;;5074118;28;20091;-54
2024/01/01 03:34:23;;;;;;;12.67;5.57;;;7.40;99.90;;;;;;5074943;28;20051;-55
2024/01/01 03:36:49;;;;;;;;;;;7.40;99.90;;;;;;5075228;28;20407;-55
2024/01/01 03:39:15;;;;;;;12.75;5.75;;;7.40;99.90;;;;;;5074981;28;19921;-55
2024/01/01 03:41:41;;;;;;;16.23;6.57;;;7.30;99.90;;;;;;5075308;28;20209;-54
2024/01/01 03:44:06;;;;;;;10.80;5.53;;;7.30;99.90;;;;;;5074822;28;20064;-55
2024/01/01 03:46:32;;;;;;;11.80;5.23;;;7.30;99.90;;;;;;5074688;28;20411;-55
2024/01/01 03:48:57;;;;;;;13.00;5.50;;;7.30;99.90;;;;;;5074653;28;20098;-55
2024/01/01 03:51:23;;;;;;;13.27;5.63;;;7.30;99.90;;;;;;5074584;28;20041;-55
2024/01/01 03:53:50;;;;;;;12.67;5.20;;;7.30;99.90;;;;;;5074832;28;20040;-54
2024/01/01 03:56:15;;;;;;;10.65;4.72;;;7.30;99.90;;;;;;5074707;28;20286;-54
2024/01/01 03:58:41;;;;;;;11.07;5.23;;;7.20;99.90;;;;;;5073424;28;20527;-53
2024/01/01 04:01:12;;;;;;;11.30;5.07;;;7.30;99.90;;;;;;5074551;28;20084;-54
2024/01/01 04:03:38;;;;;;;10.13;3.97;;;7.30;99.90;;;;;;5073068;28;20399;-54
2024/01/01 04:06:04;;;;;;;9.13;4.00;;;7.20;99.90;;;;;;5074204;28;20056;-54
2024/01/01 04:08:29;;;;;;;9.07;3.17;;;7.20;99.90;;;;;;5074233;28;20110;-56
2024/01/01 04:10:55;;;;;;;13.10;3.83;;;7.20;99.90;;;;;;5074322;28;20052;-55
2024/01/01 04:13:21;;;;;;;8.47;3.43;;;7.20;99.90;;;;;;5074221;28;20131;-53
2024/01/01 04:15:46;;;;;;;8.90;3.00;;;7.20;99.90;;;;;;5074278;28;20476;-55
2024/01/01 04:18:12;;;;;;;9.87;2.70;;;7.20;99.90;;;;;;5074160;28;20067;-55
2024/01/01 04:20:37;;;;;;;5.87;2.63;;;7.20;99.90;;;;;;5073881;28;20047;-55
2024/01/01 04:23:03;;;;;;;9.17;3.63;;;7.20;99.90;;;;;;5074959;28;20083;-55
2024/01/01 04:25:29;;;;;;;7.43;2.70;;;7.20;99.90;;;;;;5073992;28;20189;-55
2024/01/01 04:27:55;;;;;;;4.70;2.27;;;7.10;99.90;;;;;;5074100;28;20080;-55
2024/01/01 04:30:20;;;;;;;7.63;2.27;;;7.20;99.90;;;;;;5074045;28;20049;-55
2024/01/01 04:32:46;;;;;;;4.93;1.87;;;7.20;99.90;;;;;;5073815;28;20049;-55
2024/01/01 04:35:12;;;;;;;5.40;1.77;;;7.20;99.90;;;;;;5073345;28;20044;-54
2024/01/01 04:37:37;;;;;;;9.00;2.03;;;7.20;99.90;;;;;;5074148;28;20496;-53
2024/01/01 04:40:05;;;;;;;5.67;2.27;;;7.20;99.90;;;;;;5074139;28;20388;-53
2024/01/01 04:42:30;;;;;;;5.95;2.10;;;7.10;99.90;;;;;;5073321;28;20418;-55
2024/01/01 04:44:56;;;;;;;6.60;2.30;;;7.10;99.90;;;;;;5073787;28;20150;-55
2024/01/01 04:47:22;;;;;;;6.27;1.73;;;7.10;99.90;;;;;;5072889;28;20403;-53
2024/01/01 04:49:48;;;;;;;6.68;1.77;;;7.10;99.90;;;;;;5072747;28;20056;-55
2024/01/01 04:52:13;;;;;;;6.03;1.73;;;7.10;99.90;;;;;;5072620;28;20139;-55
2024/01/01 04:54:39;;;;;;;5.00;1.63;;;7.10;99.90;;;;;;5072678;28;20041;-54
2024/01/01 04:57:05;;;;;;;4.67;1.23;;;7.10;99.90;;;;;;5073718;28;20110;-55
2024/01/01 04:59:30;;;;;;;6.90;1.87;;;7.10;99.90;;;;;;5072461;28;20067;-54
2024/01/01 05:01:56;;;;;;;6.63;1.87;;;7.10;99.90;;;;;;5073594;28;20040;-54
2024/01/01 05:04:22;;;;;;;5.97;1.43;;;7.10;99.90;;;;;;5071961;28;20139;-53
2024/01/01 05:06:47;;;;;;;5.33;1.70;;;7.10;99.90;;;;;;5073639;28;20110;-53
2024/01/01 05:09:13;;;;;;;5.53;1.20;;;7.10;99.90;;;;;;5073668;28;20040;-51
2024/01/01 05:11:40;;;;;;;3.27;1.13;;;7.10;99.90;;;;;;5073638;28;20045;-54
2024/01/01 05:14:05;;;;;;;4.55;1.30;;;7.10;99.90;;;;;;5073576;28;20506;-55
2024/01/01 05:16:33;;;;;;;5.00;1.23;;;7.00;99.90;;;;;;5073474;28;20052;-55
2024/01/01 05:18:59;;;;;;;4.15;1.17;;;7.10;99.90;;;;;;5073314;28;20106;-55
2024/01/01 05:21:24;;;;;;;3.80;1.20;;;7.00;99.90;;;;;;5073487;28;20045;-54
2024/01/01 05:23:50;;;;;;;4.97;1.50;;;7.00;99.90;;;;;;5073396;28;20086;-55
2024/01/01 05:26:16;;;;;;;5.47;1.40;;;7.00;99.90;;;;;;5073664;28;20051;-55
2024/01/01 05:28:41;;;;;;;6.93;1.10;;;7.00;99.90;;;;;;5073638;28;20057;-55
2024/01/01 05:31:07;;;;;;;5.93;1.20;;;7.00;99.90;;;;;;5073300;28;20090;-54
2024/01/01 05:33:33;;;;;;;3.80;0.93;;;7.00;99.90;;;;;;5073320;28;20066;-55
2024/01/01 05:35:59;;;;;;;4.68;1.00;;;7.00;99.90;;;;;;5073430;28;20392;-54
2024/01/01 05:38:24;;;;;;;4.00;1.07;;;7.00;99.90;;;;;;5073352;28;20044;-54
2024/01/01 05:40:50;;;;;;;5.87;1.23;;;7.00;99.90;;;;;;5073399;28;20399;-55
2024/01/01 05:43:16;;;;;;;9.27;1.67;;;7.10;99.90;;;;;;5072249;28;20560;-54
2024/01/01 05:45:41;;;;;;;5.03;1.97;;;7.10;99.90;;;;;;5073623;28;20067;-55
2024/01/01 05:48:07;;;;;;;5.17;1.10;;;7.10;99.90;;;;;;5077065;28;20403;-55
2024/01/01 05:50:33;;;;;;;3.30;1.07;;;7.10;99.90;;;;;;5077099;28;20478;-55
2024/01/01 05:52:59;;;;;;;4.33;1.00;;;7.10;99.90;;;;;;5076052;28;20048;-55
2024/01/01 05:55:25;;;;;;;3.78;1.30;;;7.10;99.90;;;;;;5076144;28;20059;-55
2024/01/01 05:57:50;;;;;;;5.47;1.20;;;7.10;99.90;;;;;;5076916;28;20040;-55
2024/01/01 06:00:19;;;;;;;5.27;0.90;;;7.10;99.90;;;;;;5076830;28;20373;-55
2024/01/01 06:02:44;;;;;;;4.55;1.10;;;7.10;99.90;;;;;;5075847;28;20131;-55
2024/01/01 06:05:10;;;;;;;5.37;1.30;;;7.10;99.90;;;;;;5075344;28;20135;-54
2024/01/01 06:07:36;;;;;;;6.60;2.20;;;7.10;99.90;;;;;;5076874;28;20036;-55
2024/01/01 06:10:01;;;;;;;7.73;2.23;;;7.10;99.90;;;;;;5075748;28;20106;-55
2024/01/01 06:12:27;;;;;;;4.80;1.60;;;7.10;99.90;;;;;;5076550;28;20074;-56
2024/01/01 06:14:54;;;;;;;7.37;1.80;;;7.10;99.90;;;;;;5076504;28;20362;-56
2024/01/01 06:17:19;;;;;;;2.80;1.33;;;7.10;99.90;;;;;;5075331;28;20059;-55
2024/01/01 06:19:45;;;;;;;4.33;1.23;;;7.10;99.90;;;;;;5076309;28;20052;-56
2024/01/01 06:22:11;;;;;;;3.97;1.17;;;7.10;99.90;;;;;;5075540;28;20048;-56
2024/01/01 06:24:36;;;;;;;4.20;1.30;;;7.10;99.90;;;;;;5076355;28;20037;-56
2024/01/01 06:27:02;;;;;;;5.50;1.27;;;7.10;99.90;;;;;;5075206;28;20076;-56
2024/01/01 06:29:28;;;;;;;4.00;0.90;;;7.10;99.90;;;;;;5076314;28;20106;-56
2024/01/01 06:31:54;;;;;;;4.75;0.88;;;7.20;99.90;;;;;;5076276;28;20088;-56
2024/01/01 06:34:20;;;;;;;4.20;1.10;;;7.10;99.90;;;;;;5076062;28;20126;-56
2024/01/01 06:36:46;;;;;;;3.33;1.10;;;7.10;99.90;;;;;;5076404;28;20048;-54
2024/01/01 06:39:11;;;;;;;4.47;1.13;;;7.20;99.90;;;;;;5075046;28;20080;-56
2024/01/01 06:41:37;;;;;;;7.97;1.37;;;7.20;99.90;;;;;;5076004;28;20576;-54
2024/01/01 06:44:02;;;;;;;3.27;1.07;;;7.10;99.90;;;;;;5075006;28;20430;-55
2024/01/01 06:46:28;;;;;;;5.70;0.80;;;7.10;99.90;;;;;;5076077;28;20400;-55
2024/01/01 06:48:54;;;;;;;3.13;0.90;;;7.10;99.90;;;;;;5075872;28;20149;-55
2024/01/01 06:51:19;;;;;;;4.03;0.80;;;7.20;99.90;;;;;;5075956;28;20044;-54
2024/01/01 06:53:45;;;;;;;3.33;0.60;;;7.20;99.90;;;;;;5075945;28;20123;-54
2024/01/01 06:56:11;;;;;;;3.10;1.10;;;7.10;99.90;;;;;;5075896;28;20040;-54
2024/01/01 06:58:37;;;;;;;4.87;1.40;;;7.20;99.90;;;;;;5075482;28;20044;-55
2024/01/01 07:01:02;;;;;;;5.20;1.20;;;7.20;99.90;;;;;;5075631;28;20040;-55
2024/01/01 07:03:29;;;;;;;8.50;1.37;;;7.20;99.90;;;;;;5075630;28;20044;-55
2024/01/01 07:05:55;;;;;;;;;;;7.20;99.90;;;;;;5076353;28;20127;-55
2024/01/01 07:08:21;;;;;;;4.93;1.38;;;7.20;99.90;;;;;;5074788;28;19956;-54
2024/01/01 07:10:48;;;;;;;4.53;1.75;;;7.30;99.90;;;;;;5075780;28;20645;-54
2024/01/01 07:13:14;;;;;;;5.30;1.63;;;7.20;99.90;;;;;;5075543;28;20084;-55
2024/01/01 07:15:39;;;;;;;6.03;1.33;;;7.30;99.90;;;;;;5074438;28;20084;-55
2024/01/01 07:18:06;;;;;;;3.50;1.00;;;7.30;99.90;;;;;;5074193;28;20056;-54
2024/01/01 07:20:32;;;;;;;4.10;1.83;;;7.20;99.90;;;;;;5075472;28;20510;-55
2024/01/01 07:22:57;;;;;;;4.03;1.17;;;7.30;99.90;;;;;;5074459;28;20044;-55
2024/01/01 07:25:24;;;;;;;7.47;1.20;;;7.30;99.90;;;;;;5075143;28;20376;-54
2024/01/01 07:27:50;;;;;;;7.72;1.23;;;7.30;99.90;;;;;;5075489;28;20052;-55
2024/01/01 07:30:16;;;;;;;5.68;1.10;;;7.30;99.90;;;;;;5075035;28;20052;-55
2024/01/01 07:32:41;;;;;;;5.53;1.47;;;7.30;99.90;;;;;;5075073;28;20403;-55
2024/01/01 07:35:08;;;;;;;3.17;0.90;;;7.30;99.90;;;;;;5075125;28;20048;-55
2024/01/01 07:37:35;;;;;;;6.90;1.13;;;7.30;99.90;;;;;;5074761;28;20500;-55
2024/01/01 07:40:01;;;;;;;3.63;0.60;;;7.30;99.90;;;;;;5073950;28;20103;-55
2024/01/01 07:42:27;;;;;;;1.85;0.38;;;7.20;99.90;;;;;;5074903;28;20462;-54
2024/01/01 07:44:53;;;;;;;5.10;0.60;;;7.20;99.90;;;;;;5074844;28;20032;-53
2024/01/01 07:47:19;;;;;;;1.57;0.50;;;7.20;99.90;;;;;;5074831;28;20403;-54
2024/01/01 07:49:45;;;;;;;4.68;0.47;;;7.10;99.90;;;;;;5074792;28;20048;-54
2024/01/01 07:52:14;;;;;;;2.30;0.90;;;7.10;99.90;;;;;;5074765;28;20052;-54
2024/01/01 07:54:40;;;;;;;1.55;0.20;;;7.10;99.90;;;;;;5073708;28;20059;-53
2024/01/01 07:57:06;;;;;;;1.73;0.40;;;7.00;99.90;;;;;;5073404;28;20445;-54
2024/01/01 07:59:32;;;;;;;0.93;0.20;;;7.00;99.90;;;;;;5074417;28;20140;-54
2024/01/01 08:01:58;;;;;;;1.35;0.30;;;7.00;99.90;;;;;;5074404;28;20040;-53
2024/01/01 08:04:24;;;;;;;2.87;0.33;;;6.90;99.90;;;;;;5074346;28;20128;-54
2024/01/01 08:06:49;;;;;;;1.90;0.37;;;6.90;99.90;;;;;;5074504;28;20051;-55
2024/01/01 08:09:15;;;;;;;2.10;0.50;;;6.90;99.90;;;;;;5073495;28;20071;-54
2024/01/01 08:11:41;;;;;;;2.17;0.33;;;6.80;99.90;;;;;;5074276;28;20082;-55
2024/01/01 08:14:06;;;;;;;0.60;0.23;;;6.80;99.90;;;;;;5073983;28;20090;-55
2024/01/01 08:16:34;;;;;;;1.63;0.20;;;6.80;99.90;;;;;;5073102;28;20048;-54
2024/01/01 08:18:59;;;;;;;1.98;0.28;;;6.70;99.90;;;;;;5074047;28;20278;-55
2024/01/01 08:21:25;;;;;;;1.60;0.40;;;6.70;99.90;;;;;;5074207;28;20396;-56
2024/01/01 08:23:51;;;;;;;1.57;0.40;;;6.70;99.90;;;;;;5074158;28;20044;-56
2024/01/01 08:26:16;;;;;;;0.23;0.20;;;6.70;99.90;;;;;;5072728;28;20124;-56
2024/01/01 08:28:42;;;;;;;1.27;0.30;;;6.70;99.90;;;;;;5074171;28;20080;-55
2024/01/01 08:31:08;;;;;;;1.30;0.40;;;6.70;99.90;;;;;;5073867;28;20084;-55
2024/01/01 08:33:34;;;;;;;1.37;0.20;;;6.70;99.90;;;;;;5074266;28;20131;-56
2024/01/01 08:35:59;;;;;;;2.23;0.37;;;6.70;99.90;;;;;;5073731;28;20110;-56
2024/01/01 08:38:25;;;;;;;4.10;0.80;;;6.70;99.90;;;;;;5073033;28;20071;-56
2024/01/01 08:40:51;;;;;;;1.77;0.40;;;6.70;99.90;;;;;;5073791;28;20101;-55
2024/01/01 08:43:17;;;;;;;3.67;0.73;;;6.70;99.90;;;;;;5073755;28;20126;-55
2024/01/01 08:45:43;;;;;;;2.23;0.60;;;6.80;99.90;;;;;;5073765;28;20399;-54
2024/01/01 08:48:08;;;;;;;3.60;0.80;;;6.80;99.90;;;;;;5073900;28;20040;-55
2024/01/01 08:50:34;;;;;;;2.90;0.50;;;6.80;99.90;;;;;;5073828;28;20048;-55
2024/01/01 08:53:00;;;;;;;1.67;0.60;;;6.80;99.90;;;;;;5072688;28;20102;-55
2024/01/01 08:55:25;;;;;;;3.00;0.67;;;6.80;99.90;;;;;;5073753;28;20052;-56
2024/01/01 08:57:51;;;;;;;4.70;0.53;;;6.80;99.90;;;;;;5073782;28;20059;-56
2024/01/01 09:00:17;;;;;;;1.97;0.90;;;6.80;99.90;;;;;;5073489;28;20063;-56
2024/01/01 09:02:43;;;;;;;2.67;0.80;;;6.90;99.90;;;;;;5073683;28;20051;-55
2024/01/01 09:05:09;;;;;;;1.07;0.50;;;6.90;99.90;;;;;;5073409;28;20053;-54
2024/01/01 09:07:35;;;;;;;2.13;0.43;;;6.90;99.90;;;;;;5073917;28;20045;-55
2024/01/01 09:10:02;;;;;;;3.30;0.53;;;6.90;99.90;;;;;;5073749;28;20051;-55
2024/01/01 09:12:29;;;;;;;2.22;0.80;;;6.90;99.90;;;;;;5072651;28;20095;-55
2024/01/01 09:14:55;;;;;;;;;;;6.90;99.90;;;;;;5073973;28;20102;-54
2024/01/01 09:17:20;;;;;;;2.40;0.50;;;6.90;99.90;;;;;;5072610;28;20003;-54
2024/01/01 09:19:46;;;;;;;2.77;0.50;;;6.90;99.90;;;;;;5056410;28;20159;-54
2024/01/01 09:22:12;;;;;;;3.97;0.60;;;6.90;99.90;;;;;;5077680;28;20094;-55
2024/01/01 09:24:38;;;;;;;2.63;0.47;;;6.90;99.90;;;;;;5077758;28;20110;-55
2024/01/01 09:27:04;;;;;;;2.90;0.50;;;6.80;99.90;;;;;;5077421;28;20450;-54
2024/01/01 09:29:30;;;;;;;2.35;0.40;;;6.90;99.90;;;;;;5077236;28;20127;-54
2024/01/01 09:31:55;;;;;;;3.00;0.70;;;6.80;99.90;;;;;;5077478;28;20185;-55
2024/01/01 09:34:21;;;;;;;1.83;0.50;;;6.80;99.90;;;;;;5077654;28;20050;-55
2024/01/01 09:36:47;;;;;;;2.83;0.57;;;6.80;99.90;;;;;;5077364;28;20043;-51
2024/01/01 09:39:13;;;;;;;3.17;0.60;;;6.70;99.90;;;;;;5077213;28;20048;-50
2024/01/01 09:41:39;;;;;;;3.28;0.57;;;6.70;99.90;;;;;;5077164;28;20102;-54
2024/01/01 09:44:05;;;;;;;3.40;0.40;;;6.70;99.90;;;;;;5076979;28;20080;-54
2024/01/01 09:46:33;;;;;;;4.13;0.67;;;6.70;99.90;;;;;;5077157;28;20095;-53
2024/01/01 09:49:02;;;;;;;2.80;0.70;;;6.70;99.90;;;;;;5077134;28;20080;-54
2024/01/01 09:51:28;;;;;;;1.35;0.32;;;6.70;99.90;;;;;;5076965;28;20044;-54
2024/01/01 09:53:54;;;;;;;1.53;0.67;;;6.70;99.90;;;;;;5076926;28;20106;-54
2024/01/01 09:56:21;;;;;;;2.03;0.50;;;6.70;99.90;;;;;;5076873;28;20044;-55
2024/01/01 09:58:47;;;;;;;1.65;0.30;;;6.70;99.90;;;;;;5076769;28;20052;-55
2024/01/01 10:01:19;;;;;;;2.40;0.33;;;6.70;99.90;;;;;;5077133;28;20498;-55
2024/01/01 10:04:03;;;;;;;3.08;0.50;;;6.80;99.90;;;;;;5075960;28;20053;-55
2024/01/01 10:06:30;;;;;;;3.25;0.50;;;6.80;99.90;;;;;;5076824;28;20084;-53
2024/01/01 10:09:10;;;;;;;3.53;0.70;;;6.90;99.90;;;;;;5076540;28;20115;-54
2024/01/01 10:11:41;;;;;;;3.97;0.55;;;6.90;99.90;;;;;;5076701;28;20052;-55
2024/01/01 10:14:07;;;;;;;3.63;0.63;;;7.00;99.90;;;;;;5076726;28;20040;-54
2024/01/01 10:16:33;;;;;;;1.67;0.50;;;7.00;99.90;;;;;;5076533;28;20048;-55
2024/01/01 10:19:02;;;;;;;3.78;0.75;;;7.00;99.90;;;;;;5076514;28;20044;-55
2024/01/01 10:21:32;;;;;;;2.03;0.50;;;7.00;99.90;;;;;;5076254;28;20040;-55
2024/01/01 10:23:59;;;;;;;2.30;0.70;;;7.00;99.90;;;;;;5076675;28;20040;-55
2024/01/01 10:26:25;;;;;;;2.03;0.60;;;7.00;99.90;;;;;;5076797;28;20052;-55
2024/01/01 10:28:51;;;;;;;1.48;0.40;;;7.00;99.90;;;;;;5075577;28;20135;-55
2024/01/01 10:31:17;;;;;;;4.80;0.93;;;7.00;99.90;;;;;;5075820;28;20587;-54
2024/01/01 10:33:44;;;;;;;4.07;0.60;;;7.00;99.90;;;;;;5076007;28;20048;-53
2024/01/01 10:36:12;;;;;;;4.43;0.63;;;7.10;99.90;;;;;;5076201;28;20119;-54
2024/01/01 10:38:39;;;;;;;4.90;0.80;;;7.10;99.90;;;;;;5075246;28;20472;-55
2024/01/01 10:41:07;;;;;;;6.40;0.70;;;7.10;99.90;;;;;;5076147;28;20495;-51
2024/01/01 10:43:35;;;;;;;2.83;0.70;;;7.20;99.90;;;;;;5076168;28;20056;-49
2024/01/01 10:46:05;;;;;;;3.95;0.80;;;7.30;99.90;;;;;;5075939;28;20127;-54
2024/01/01 10:48:35;;;;;;;3.22;0.82;;;7.30;99.90;;;;;;5076105;28;20391;-54
2024/01/01 10:51:21;;;;;;;2.72;0.65;;;7.40;99.90;;;;;;5076109;28;20045;-54
2024/01/01 10:54:15;;;;;;;7.88;1.05;;;7.40;99.90;;;;;;5074765;28;20048;-55
2024/01/01 10:57:22;;;;;;;4.55;0.70;;;7.50;99.90;;;;;;5075773;28;20084;-54
2024/01/01 11:00:17;;;;;;;3.78;0.73;;;7.50;99.90;;;;;;5068214;28;20064;-53
2024/01/01 11:02:43;;;;;;;6.68;1.05;;;7.50;99.90;;;;;;5075887;28;20048;-55
2024/01/01 11:05:11;;;;;;;4.18;0.80;;;7.60;99.90;;;;;;5075242;28;20052;-55
2024/01/01 11:07:52;;;;;;;12.50;1.42;;;7.60;99.90;;;;;;5075363;28;20056;-55
2024/01/01 11:10:49;;;;;;;8.38;1.10;;;7.70;99.90;;;;;;5075794;28;20055;-55
2024/01/01 11:13:27;;;;;;;11.57;1.20;;;7.70;99.90;;;;;;5070876;28;20105;-55
2024/01/01 11:16:00;;;;;;;4.45;0.93;;;7.70;99.90;;;;;;5075227;28;20044;-55
2024/01/01 11:18:34;;;;;;;9.48;1.55;;;7.70;99.90;;;;;;5075407;28;20051;-55
2024/01/01 11:21:09;;;;;;;8.65;1.73;;;7.70;99.90;;;;;;5074372;28;20056;-55
2024/01/01 11:23:41;;;;;;;4.13;0.50;;;7.70;99.90;;;;;;5075404;28;20122;-55
2024/01/01 11:26:31;;;;;;;4.20;0.73;;;7.80;99.90;;;;;;5075199;28;20392;-55
2024/01/01 11:29:28;;;;;;;7.45;1.50;;;7.80;99.90;;;;;;5075185;28;20040;-54
2024/01/01 11:32:02;;;;;;;4.40;0.90;;;7.80;99.90;;;;;;5074140;28;20499;-55
2024/01/01 11:34:28;;;;;;;4.82;0.95;;;7.80;99.90;;;;;;5074961;28;20123;-55
2024/01/01 11:36:54;;;;;;;4.30;0.90;;;7.80;99.90;;;;;;5075178;28;20127;-55
2024/01/01 11:39:24;;;;;;;9.50;1.30;;;7.70;99.90;;;;;;5075080;28;20045;-56
2024/01/01 11:41:50;;;;;;;4.25;0.80;;;7.70;99.90;;;;;;5074121;28;20053;-55
2024/01/01 11:44:17;;;;;;;8.63;1.20;;;7.70;99.90;;;;;;5072807;28;20109;-56
2024/01/01 11:46:46;;;;;;;5.88;0.88;;;7.70;99.90;;;;;;5075025;28;20052;-56
2024/01/01 11:49:12;;;;;;;6.85;0.95;;;7.80;99.90;;;;;;5073567;28;20496;-55
2024/01/01 11:51:49;;;;;;;;;;;7.80;99.90;;;;;;5075548;28;20391;-56
2024/01/01 11:54:14;;;;;;;7.43;0.77;;;7.80;99.90;;;;;;5074845;28;19921;-56
2024/01/01 11:56:41;;;;;;;6.20;1.33;;;7.80;99.90;;;;;;5074717;28;20479;-56
2024/01/01 11:59:07;;;;;;;4.30;0.70;;;7.80;99.90;;;;;;5074506;28;20041;-56
2024/01/01 12:01:34;;;;;;;5.93;0.93;;;7.80;99.90;;;;;;5073581;28;20049;-56
2024/01/01 12:04:03;;;;;;;4.45;0.98;;;7.70;99.90;;;;;;5074491;28;20154;-56
2024/01/01 12:06:30;;;;;;;2.92;0.63;;;7.70;99.90;;;;;;5074695;28;20135;-56
2024/01/01 12:09:10;;;;;;;3.87;1.00;;;7.70;99.90;;;;;;5074513;28;20056;-56
2024/01/01 12:11:40;;;;;;;5.20;0.60;;;7.70;99.90;;;;;;5074393;28;20056;-53
2024/01/01 12:14:06;;;;;;;8.30;1.38;;;7.70;99.90;;;;;;5074071;28;20044;-54
2024/01/01 12:16:33;;;;;;;4.97;1.20;;;7.70;99.90;;;;;;5073266;28;20055;-55
2024/01/01 12:19:09;;;;;;;5.05;0.68;;;7.70;99.90;;;;;;5074379;28;20048;-55
2024/01/01 12:21:44;;;;;;;6.40;1.50;;;7.60;99.90;;;;;;5074175;28;20055;-56
2024/01/01 12:24:16;;;;;;;6.72;1.20;;;7.60;99.90;;;;;;5073964;28;20044;-55
2024/01/01 12:26:48;;;;;;;9.40;1.27;;;7.60;99.90;;;;;;5074138;28;20499;-55
2024/01/01 12:29:19;;;;;;;6.38;1.23;;;7.70;99.90;;;;;;5074187;28;20044;-55
2024/01/01 12:31:49;;;;;;;6.07;0.95;;;7.70;99.90;;;;;;5074041;28;20050;-55
2024/01/01 12:34:17;;;;;;;8.45;1.35;;;7.70;99.90;;;;;;5074080;28;20123;-55
2024/01/01 12:36:45;;;;;;;7.25;1.60;;;7.80;99.90;;;;;;5073819;28;20087;-54
2024/01/01 12:39:11;;;;;;;2.72;0.68;;;7.80;99.90;;;;;;5073797;28;20049;-54
2024/01/01 12:41:40;;;;;;;6.57;0.93;;;7.80;99.90;;;;;;5073750;28;20046;-51
2024/01/01 12:44:06;;;;;;;3.05;0.70;;;7.90;99.90;;;;;;5072671;28;20090;-54
2024/01/01 12:46:31;;;;;;;7.47;0.50;;;7.90;99.90;;;;;;5073926;28;20491;-54
2024/01/01 12:48:57;;;;;;;7.80;1.10;;;7.90;99.90;;;;;;5073872;28;20043;-55
2024/01/01 12:51:25;;;;;;;7.30;1.20;;;8.00;99.90;;;;;;5073662;28;20471;-55